createdAt,value
2022-09-09T00:02:24.957Z,101058.44
2022-09-09T00:05:01.116Z,101061.38
2022-09-09T00:07:35.988Z,101056.00
2022-09-09T00:10:19.128Z,101048.81
2022-09-09T00:12:58.234Z,101052.44
2022-09-09T00:16:01.052Z,101064.59
2022-09-09T00:18:31.674Z,101063.19
2022-09-09T00:21:13.572Z,101064.19
2022-09-09T00:23:54.933Z,101059.56
2022-09-09T00:26:42.676Z,101065.47
2022-09-09T00:29:24.359Z,101073.59
2022-09-09T00:31:55.387Z,101069.44
2022-09-09T00:34:24.677Z,101077.44
2022-09-09T00:36:53.894Z,101074.75
2022-09-09T00:39:45.876Z,101085.44
2022-09-09T00:42:33.933Z,101083.09
2022-09-09T00:45:13.205Z,101083.56
2022-09-09T00:47:52.919Z,101078.28
2022-09-09T00:50:35.479Z,101081.06
2022-09-09T00:53:35.060Z,101087.19
2022-09-09T00:56:09.402Z,101093.88
2022-09-09T00:58:37.931Z,101083.44
2022-09-09T01:01:14.297Z,101082.56
2022-09-09T01:03:54.505Z,101092.38
2022-09-09T01:06:35.479Z,101085.91
2022-09-09T01:09:11.681Z,101083.97
2022-09-09T01:11:53.410Z,101079.72
2022-09-09T01:14:20.700Z,101089.53
2022-09-09T01:16:49.855Z,101078.38
2022-09-09T01:19:25.249Z,101083.41
2022-09-09T01:22:08.273Z,101075.19
2022-09-09T01:24:54.325Z,101074.44
2022-09-09T01:27:22.604Z,101084.75
2022-09-09T01:29:49.893Z,101083.38
2022-09-09T01:32:41.355Z,101086.53
2022-09-09T01:35:13.525Z,101080.44
2022-09-09T01:37:41.084Z,101077.97
2022-09-09T01:40:08.797Z,101079.09
2022-09-09T01:42:36.178Z,101085.34
2022-09-09T01:45:04.072Z,101079.34
2022-09-09T01:47:31.420Z,101082.78
2022-09-09T01:49:59.644Z,101080.22
2022-09-09T01:52:27.124Z,101075.41
2022-09-09T01:54:54.567Z,101084.19
2022-09-09T01:57:38.416Z,101083.69
2022-09-09T02:00:14.590Z,101076.66
2022-09-09T02:02:54.242Z,101079.25
2022-09-09T02:05:42.813Z,101077.41
2022-09-09T02:08:43.647Z,101083.69
2022-09-09T02:11:21.649Z,101080.84
2022-09-09T02:13:51.165Z,101082.56
2022-09-09T02:16:24.632Z,101089.69
2022-09-09T02:19:10.014Z,101088.44
2022-09-09T02:21:37.668Z,101096.78
2022-09-09T02:24:11.401Z,101094.56
2022-09-09T02:26:41.698Z,101088.28
2022-09-09T02:29:19.168Z,101095.00
2022-09-09T02:31:47.859Z,101099.25
2022-09-09T02:34:16.047Z,101106.94
2022-09-09T02:36:44.542Z,101110.88
2022-09-09T02:39:11.976Z,101102.03
2022-09-09T02:41:41.904Z,101104.94
2022-09-09T02:44:20.310Z,101108.44
2022-09-09T02:47:02.746Z,101105.22
2022-09-09T02:49:39.285Z,101111.31
2022-09-09T02:52:19.787Z,101111.88
2022-09-09T02:54:47.239Z,101117.28
2022-09-09T02:57:20.974Z,101115.13
2022-09-09T02:59:49.191Z,101117.66
2022-09-09T03:02:16.730Z,101119.63
2022-09-09T03:04:51.824Z,101126.44
2022-09-09T03:07:20.339Z,101126.97
2022-09-09T03:09:50.211Z,101122.69
2022-09-09T03:12:17.609Z,101130.13
2022-09-09T03:14:46.482Z,101134.97
2022-09-09T03:17:14.677Z,101139.31
2022-09-09T03:19:42.058Z,101135.41
2022-09-09T03:22:11.219Z,101142.75
2022-09-09T03:24:39.010Z,101149.56
2022-09-09T03:27:06.347Z,101144.25
2022-09-09T03:29:34.049Z,101149.44
2022-09-09T03:32:02.253Z,101144.72
2022-09-09T03:34:29.722Z,101148.06
2022-09-09T03:36:57.104Z,101148.91
2022-09-09T03:39:24.472Z,101149.88
2022-09-09T03:41:51.995Z,101147.94
2022-09-09T03:44:19.269Z,101152.25
2022-09-09T03:46:46.879Z,101153.13
2022-09-09T03:49:14.313Z,101152.91
2022-09-09T03:51:42.137Z,101158.69
2022-09-09T03:54:11.247Z,101154.59
2022-09-09T03:56:42.554Z,101159.53
2022-09-09T03:59:09.846Z,101159.84
2022-09-09T04:01:37.144Z,101158.31
2022-09-09T04:04:04.662Z,101156.72
2022-09-09T04:06:32.262Z,101157.88
2022-09-09T04:08:59.829Z,101160.66
2022-09-09T04:11:27.593Z,101161.34
2022-09-09T04:13:54.941Z,101168.94
2022-09-09T04:16:22.466Z,101157.09
2022-09-09T04:18:50.741Z,101170.78
2022-09-09T04:21:18.570Z,101166.66
2022-09-09T04:23:45.963Z,101170.38
2022-09-09T04:26:13.293Z,101175.16
2022-09-09T04:28:40.687Z,101177.38
2022-09-09T04:31:12.519Z,101181.19
2022-09-09T04:33:40.713Z,101178.09
2022-09-09T04:36:08.578Z,101171.84
2022-09-09T04:38:37.625Z,101180.75
2022-09-09T04:44:28.325Z,101176.69
2022-09-09T04:46:55.672Z,101181.50
2022-09-09T04:49:29.886Z,101176.59
2022-09-09T04:52:04.554Z,101179.84
2022-09-09T04:54:32.117Z,101169.88
2022-09-09T04:56:59.820Z,101168.69
2022-09-09T04:59:27.255Z,101167.94
2022-09-09T05:01:59.688Z,101159.56
2022-09-09T05:04:27.033Z,101161.91
2022-09-09T05:06:54.901Z,101173.59
2022-09-09T05:09:22.339Z,101165.75
2022-09-09T05:11:52.438Z,101170.22
2022-09-09T05:14:23.768Z,101170.56
2022-09-09T05:16:54.824Z,101168.25
2022-09-09T05:19:23.084Z,101172.22
2022-09-09T05:21:51.336Z,101163.94
2022-09-09T05:24:26.477Z,101174.44
2022-09-09T05:26:56.339Z,101175.53
2022-09-09T05:29:26.166Z,101180.13
2022-09-09T05:31:53.845Z,101169.72
2022-09-09T05:34:21.893Z,101171.56
2022-09-09T05:36:53.236Z,101178.63
2022-09-09T05:39:20.846Z,101164.78
2022-09-09T05:42:02.173Z,101179.38
2022-09-09T05:44:34.195Z,101180.03
2022-09-09T05:47:01.716Z,101173.81
2022-09-09T05:49:29.986Z,101186.78
2022-09-09T05:51:59.377Z,101179.06
2022-09-09T05:54:26.764Z,101182.38
2022-09-09T05:56:54.839Z,101180.75
2022-09-09T05:59:27.534Z,101180.63
2022-09-09T06:02:01.381Z,101189.09
2022-09-09T06:04:33.113Z,101188.50
2022-09-09T06:07:10.073Z,101191.53
2022-09-09T06:09:42.446Z,101187.41
2022-09-09T06:12:11.428Z,101196.06
2022-09-09T06:14:44.403Z,101196.81
2022-09-09T06:17:21.345Z,101200.63
2022-09-09T06:20:02.057Z,101214.31
2022-09-09T06:22:30.111Z,101222.19
2022-09-09T06:25:02.229Z,101226.66
2022-09-09T06:27:30.481Z,101234.75
2022-09-09T06:30:07.519Z,101238.00
2022-09-09T06:32:38.559Z,101232.94
2022-09-09T06:35:12.051Z,101235.19
2022-09-09T06:44:54.592Z,101248.25
2022-09-09T06:47:29.028Z,101240.53
2022-09-09T06:50:01.247Z,101246.09
2022-09-09T06:52:29.532Z,101244.13
2022-09-09T06:55:04.022Z,101245.69
2022-09-09T06:57:38.474Z,101244.00
2022-09-09T07:00:17.974Z,101262.78
2022-09-09T07:02:45.940Z,101262.09
2022-09-09T07:05:13.869Z,101252.34
2022-09-09T07:07:41.458Z,101256.72
2022-09-09T07:10:09.662Z,101255.16
2022-09-09T07:12:38.075Z,101255.72
2022-09-09T07:15:06.597Z,101252.09
2022-09-09T07:17:37.793Z,101256.53
2022-09-09T07:20:08.835Z,101252.97
2022-09-09T07:22:39.954Z,101259.81
2022-09-09T07:25:09.057Z,101255.91
2022-09-09T07:27:39.634Z,101254.81
2022-09-09T07:30:08.653Z,101257.22
2022-09-09T07:32:41.993Z,101246.66
2022-09-09T07:35:15.213Z,101257.38
2022-09-09T07:37:50.701Z,101246.03
2022-09-09T07:40:23.576Z,101254.41
2022-09-09T07:42:51.385Z,101257.44
2022-09-09T07:45:19.083Z,101254.72
2022-09-09T07:47:49.577Z,101255.72
2022-09-09T07:50:25.737Z,101255.28
2022-09-09T07:53:14.187Z,101254.28
2022-09-09T07:55:51.891Z,101245.94
2022-09-09T08:01:46.440Z,101254.47
2022-09-09T08:04:18.016Z,101250.56
2022-09-09T08:07:25.962Z,101238.31
2022-09-09T08:09:56.857Z,101241.31
2022-09-09T08:12:24.520Z,101251.59
2022-09-09T08:14:55.510Z,101253.44
2022-09-09T08:17:23.878Z,101252.84
2022-09-09T08:20:00.409Z,101250.34
2022-09-09T08:23:30.765Z,101242.03
2022-09-09T08:26:38.324Z,101238.06
2022-09-09T08:29:09.332Z,101227.00
2022-09-09T08:31:40.852Z,101235.50
2022-09-09T08:34:10.743Z,101233.63
2022-09-09T08:36:43.498Z,101229.00
2022-09-09T08:39:13.457Z,101229.56
2022-09-09T08:42:19.085Z,101226.22
2022-09-09T08:45:04.122Z,101235.00
2022-09-09T08:47:49.186Z,101228.19
2022-09-09T08:51:03.080Z,101233.19
2022-09-09T08:53:39.934Z,101223.84
2022-09-09T08:56:14.790Z,101225.22
2022-09-09T08:58:50.161Z,101216.72
2022-09-09T09:01:57.137Z,101224.06
2022-09-09T09:05:00.353Z,101213.28
2022-09-09T09:07:35.711Z,101221.28
2022-09-09T09:10:18.963Z,101213.09
2022-09-09T09:12:57.273Z,101218.00
2022-09-09T09:15:29.462Z,101218.75
2022-09-09T09:18:00.807Z,101213.28
2022-09-09T09:20:44.255Z,101216.72
2022-09-09T09:23:20.801Z,101220.38
2022-09-09T09:25:48.674Z,101219.88
2022-09-09T09:28:24.717Z,101215.44
2022-09-09T09:31:02.765Z,101222.50
2022-09-09T09:33:38.559Z,101237.22
2022-09-09T09:36:09.561Z,101235.91
2022-09-09T09:41:35.728Z,101243.38
2022-09-09T09:44:04.420Z,101217.09
2022-09-09T09:46:32.531Z,101226.72
2022-09-09T09:49:01.710Z,101236.56
2022-09-09T09:51:31.140Z,101228.75
2022-09-09T09:54:10.925Z,101231.19
2022-09-09T09:56:38.814Z,101231.56
2022-09-09T09:59:13.320Z,101232.38
2022-09-09T10:01:52.024Z,101222.97
2022-09-09T10:04:24.737Z,101212.25
2022-09-09T10:06:53.086Z,101229.72
2022-09-09T10:09:24.084Z,101224.09
2022-09-09T10:12:20.138Z,101224.44
2022-09-09T10:14:58.183Z,101224.28
2022-09-09T10:17:42.582Z,101230.06
2022-09-09T10:20:25.091Z,101231.13
2022-09-09T10:22:53.820Z,101228.88
2022-09-09T10:25:38.309Z,101227.72
2022-09-09T10:28:27.564Z,101224.81
2022-09-09T10:31:18.493Z,101221.22
2022-09-09T10:34:08.177Z,101221.91
2022-09-09T10:36:44.264Z,101224.69
2022-09-09T10:39:43.107Z,101230.88
2022-09-09T10:42:17.316Z,101213.94
2022-09-09T10:45:13.306Z,101212.78
2022-09-09T10:47:59.222Z,101222.16
2022-09-09T10:51:00.015Z,101219.25
2022-09-09T10:53:39.486Z,101213.97
2022-09-09T10:56:14.887Z,101209.88
2022-09-09T10:58:47.688Z,101207.47
2022-09-09T11:01:26.998Z,101212.25
2022-09-09T11:04:00.296Z,101196.19
2022-09-09T11:06:34.241Z,101205.09
2022-09-09T11:09:03.774Z,101197.38
2022-09-09T11:11:42.635Z,101206.09
2022-09-09T11:14:39.386Z,101199.78
2022-09-09T11:17:12.226Z,101204.59
2022-09-09T11:19:44.751Z,101214.66
2022-09-09T11:22:39.781Z,101208.69
2022-09-09T11:25:25.807Z,101210.84
2022-09-09T11:28:40.397Z,101214.97
2022-09-09T11:31:43.462Z,101208.13
2022-09-09T11:34:20.080Z,101204.41
2022-09-09T11:37:00.321Z,101199.25
2022-09-09T11:39:49.926Z,101193.75
2022-09-09T11:42:23.576Z,101196.78
2022-09-09T11:44:52.144Z,101194.34
2022-09-09T11:47:31.465Z,101201.72
2022-09-09T11:50:32.247Z,101199.88
2022-09-09T11:53:15.065Z,101196.78
2022-09-09T11:55:42.837Z,101190.97
2022-09-09T11:58:10.458Z,101197.53
2022-09-09T12:00:44.473Z,101193.59
2022-09-09T12:03:35.541Z,101196.53
2022-09-09T12:06:32.330Z,101188.81
2022-09-09T12:09:26.395Z,101192.75
2022-09-09T12:12:14.045Z,101202.00
2022-09-09T12:15:02.451Z,101198.06
2022-09-09T12:17:31.932Z,101193.78
2022-09-09T12:20:25.494Z,101198.06
2022-09-09T12:23:06.081Z,101192.75
2022-09-09T12:26:09.171Z,101187.97
2022-09-09T12:29:13.395Z,101185.22
2022-09-09T12:32:15.443Z,101175.91
2022-09-09T12:34:51.301Z,101167.78
2022-09-09T12:37:20.370Z,101169.81
2022-09-09T12:39:56.820Z,101175.84
2022-09-09T12:42:29.368Z,101176.03
2022-09-09T12:45:07.421Z,101181.19
2022-09-09T12:47:52.401Z,101181.38
2022-09-09T12:50:29.352Z,101172.66
2022-09-09T12:53:03.675Z,101176.41
2022-09-09T12:55:37.370Z,101162.72
2022-09-09T12:58:07.041Z,101167.19
2022-09-09T13:00:35.468Z,101181.59
2022-09-09T13:03:20.025Z,101179.22
2022-09-09T13:05:48.507Z,101173.03
2022-09-09T13:08:30.330Z,101177.16
2022-09-09T13:11:04.373Z,101183.97
2022-09-09T13:13:36.685Z,101191.34
2022-09-09T13:16:08.370Z,101188.50
2022-09-09T13:18:43.281Z,101197.19
2022-09-09T13:21:11.742Z,101197.00
2022-09-09T13:23:41.053Z,101201.47
2022-09-09T13:26:27.759Z,101195.84
2022-09-09T13:28:56.996Z,101194.47
2022-09-09T13:31:31.570Z,101191.22
2022-09-09T13:33:59.401Z,101189.53
2022-09-09T13:36:43.663Z,101183.16
2022-09-09T13:39:34.725Z,101185.91
2022-09-09T13:42:06.326Z,101193.59
2022-09-09T13:44:39.075Z,101192.59
2022-09-09T13:47:15.749Z,101192.22
2022-09-09T13:49:43.471Z,101194.47
2022-09-09T13:52:15.617Z,101196.50
2022-09-09T13:54:51.134Z,101196.84
2022-09-09T13:57:28.628Z,101198.72
2022-09-09T14:00:05.380Z,101204.19
2022-09-09T14:02:34.938Z,101194.59
2022-09-09T14:05:02.831Z,101212.59
2022-09-09T14:07:33.200Z,101198.41
2022-09-09T14:10:01.460Z,101209.53
2022-09-09T14:12:29.425Z,101208.31
2022-09-09T14:14:59.691Z,101210.38
2022-09-09T14:17:31.489Z,101204.59
2022-09-09T14:20:01.137Z,101208.84
2022-09-09T14:22:32.767Z,101205.59
2022-09-09T14:25:04.390Z,101210.19
2022-09-09T14:27:35.904Z,101207.81
2022-09-09T14:30:11.152Z,101200.28
2022-09-09T14:32:48.859Z,101205.94
2022-09-09T14:35:18.478Z,101202.69
2022-09-09T14:37:45.908Z,101215.53
2022-09-09T14:40:13.640Z,101214.81
2022-09-09T14:42:42.291Z,101207.31
2022-09-09T14:45:11.775Z,101220.09
2022-09-09T14:47:40.089Z,101206.53
2022-09-09T14:50:09.683Z,101222.44
2022-09-09T14:52:37.992Z,101219.31
2022-09-09T14:55:06.221Z,101227.63
2022-09-09T14:57:36.292Z,101232.91
2022-09-09T15:00:07.525Z,101236.66
2022-09-09T15:02:35.559Z,101235.56
2022-09-09T15:05:10.192Z,101247.84
2022-09-09T15:07:39.467Z,101238.59
2022-09-09T15:10:12.264Z,101237.81
2022-09-09T15:12:39.927Z,101255.69
2022-09-09T15:15:08.430Z,101249.50
2022-09-09T15:17:37.167Z,101257.63
2022-09-09T15:20:06.821Z,101241.38
2022-09-09T15:22:37.367Z,101251.69
2022-09-09T15:25:06.957Z,101256.91
2022-09-09T15:27:35.972Z,101256.69
2022-09-09T15:30:04.285Z,101263.78
2022-09-09T15:32:42.468Z,101258.97
2022-09-09T15:35:10.855Z,101250.06
2022-09-09T15:37:46.197Z,101251.00
2022-09-09T15:40:16.849Z,101261.34
2022-09-09T15:42:47.509Z,101263.69
2022-09-09T15:45:17.212Z,101266.72
2022-09-09T15:47:44.655Z,101274.50
2022-09-09T15:50:12.758Z,101275.28
2022-09-09T15:52:43.273Z,101269.13
2022-09-09T15:55:13.244Z,101277.91
2022-09-09T15:57:48.220Z,101280.06
2022-09-09T16:00:17.779Z,101282.41
2022-09-09T16:02:45.447Z,101297.22
2022-09-09T16:05:16.422Z,101286.63
2022-09-09T16:07:46.144Z,101291.66
2022-09-09T16:10:16.266Z,101299.28
2022-09-09T16:12:44.761Z,101291.41
2022-09-09T16:15:14.159Z,101296.59
2022-09-09T16:17:41.723Z,101300.66
2022-09-09T16:20:21.688Z,101306.53
2022-09-09T16:23:04.372Z,101301.13
2022-09-09T16:25:34.715Z,101306.75
2022-09-09T16:28:06.494Z,101309.06
2022-09-09T16:30:34.098Z,101312.31
2022-09-09T16:33:01.785Z,101314.34
2022-09-09T16:35:31.058Z,101319.06
2022-09-09T16:38:02.379Z,101321.53
2022-09-09T16:40:30.509Z,101317.41
2022-09-09T16:43:07.364Z,101325.13
2022-09-09T16:45:35.337Z,101329.47
2022-09-09T16:48:03.496Z,101329.00
2022-09-09T16:50:36.972Z,101342.94
2022-09-09T16:53:07.739Z,101343.38
2022-09-09T16:55:47.515Z,101345.97
2022-09-09T16:58:18.681Z,101341.94
2022-09-09T17:00:53.211Z,101348.81
2022-09-09T17:03:25.560Z,101360.13
2022-09-09T17:06:04.377Z,101360.00
2022-09-09T17:08:34.807Z,101375.63
2022-09-09T17:11:02.513Z,101365.13
2022-09-09T17:13:31.593Z,101364.44
2022-09-09T17:16:06.865Z,101366.56
2022-09-09T17:18:39.440Z,101369.88
2022-09-09T17:21:15.013Z,101358.66
2022-09-09T17:23:44.266Z,101373.69
2022-09-09T17:26:19.707Z,101364.06
2022-09-09T17:28:48.800Z,101363.50
2022-09-09T17:31:20.681Z,101364.91
2022-09-09T17:34:00.874Z,101368.31
2022-09-09T17:36:40.668Z,101356.13
2022-09-09T17:39:10.668Z,101369.44
2022-09-09T17:41:50.169Z,101362.69
2022-09-09T17:44:20.461Z,101368.66
2022-09-09T17:46:52.101Z,101365.66
2022-09-09T17:49:24.367Z,101369.50
2022-09-09T17:52:47.872Z,101376.59
2022-09-09T17:55:42.178Z,101380.25
2022-09-09T17:58:13.322Z,101386.44
2022-09-09T18:00:44.932Z,101374.13
2022-09-09T18:03:12.737Z,101375.63
2022-09-09T18:05:42.604Z,101381.34
2022-09-09T18:08:13.597Z,101377.16
2022-09-09T18:10:41.209Z,101377.28
2022-09-09T18:13:22.874Z,101379.53
2022-09-09T18:15:50.837Z,101377.09
2022-09-09T18:18:21.861Z,101370.34
2022-09-09T18:21:09.887Z,101381.47
2022-09-09T18:23:39.972Z,101381.72
2022-09-09T18:26:15.645Z,101377.53
2022-09-09T18:28:52.197Z,101379.41
2022-09-09T18:31:27.306Z,101381.41
2022-09-09T18:33:58.602Z,101373.06
2022-09-09T18:36:35.065Z,101373.06
2022-09-09T18:39:06.318Z,101374.72
2022-09-09T18:41:39.396Z,101380.38
2022-09-09T18:44:16.753Z,101379.19
2022-09-09T18:46:45.010Z,101375.50
2022-09-09T18:49:13.277Z,101369.31
2022-09-09T18:51:43.219Z,101376.00
2022-09-09T18:54:14.545Z,101373.44
2022-09-09T18:56:43.941Z,101367.25
2022-09-09T18:59:14.222Z,101371.13
2022-09-09T19:01:42.489Z,101371.22
2022-09-09T19:04:10.440Z,101371.63
2022-09-09T19:06:44.448Z,101378.28
2022-09-09T19:09:17.133Z,101381.84
2022-09-09T19:11:47.112Z,101384.97
2022-09-09T19:14:17.089Z,101382.53
2022-09-09T19:16:48.641Z,101384.25
2022-09-09T19:19:19.822Z,101384.63
2022-09-09T19:21:52.511Z,101394.88
2022-09-09T19:24:23.132Z,101392.53
2022-09-09T19:26:52.832Z,101397.97
2022-09-09T19:29:29.016Z,101401.16
2022-09-09T19:34:47.679Z,101410.69
2022-09-09T19:37:19.324Z,101408.19
2022-09-09T19:39:51.985Z,101416.84
2022-09-09T19:42:21.467Z,101411.03
2022-09-09T19:44:53.868Z,101415.59
2022-09-09T19:47:30.131Z,101409.69
2022-09-09T19:50:01.039Z,101409.31
2022-09-09T19:52:37.590Z,101408.59
2022-09-09T19:55:06.196Z,101402.06
2022-09-09T19:57:37.067Z,101405.88
2022-09-09T20:00:09.249Z,101403.41
2022-09-09T20:02:40.600Z,101412.91
2022-09-09T20:05:08.981Z,101410.09
2022-09-09T20:07:37.168Z,101411.19
2022-09-09T20:10:05.391Z,101410.44
2022-09-09T20:12:36.402Z,101421.53
2022-09-09T20:15:04.297Z,101416.97
2022-09-09T20:17:36.820Z,101420.06
2022-09-09T20:20:12.644Z,101421.91
2022-09-09T20:22:44.738Z,101420.06
2022-09-09T20:25:15.668Z,101418.22
2022-09-09T20:30:28.285Z,101431.00
2022-09-09T20:33:28.020Z,101436.53
2022-09-09T20:35:59.553Z,101442.09
2022-09-09T20:38:28.725Z,101432.97
2022-09-09T20:40:57.101Z,101445.03
2022-09-09T20:43:25.484Z,101446.66
2022-09-09T20:45:59.107Z,101448.59
2022-09-09T20:48:27.567Z,101453.16
2022-09-09T20:50:55.983Z,101446.88
2022-09-09T20:53:23.736Z,101459.56
2022-09-09T20:55:51.382Z,101454.16
2022-09-09T20:58:19.113Z,101457.94
2022-09-09T21:00:46.760Z,101467.94
2022-09-09T21:03:15.090Z,101454.50
2022-09-09T21:05:44.503Z,101477.91
2022-09-09T21:08:20.184Z,101478.34
2022-09-09T21:10:52.204Z,101481.81
2022-09-09T21:13:22.331Z,101479.84
2022-09-09T21:15:52.757Z,101476.41
2022-09-09T21:18:30.601Z,101483.03
2022-09-09T21:20:58.959Z,101483.03
2022-09-09T21:23:28.126Z,101482.28
2022-09-09T21:25:58.275Z,101485.88
2022-09-09T21:28:25.892Z,101489.09
2022-09-09T21:30:55.898Z,101497.22
2022-09-09T21:33:25.421Z,101495.59
2022-09-09T21:35:52.801Z,101491.41
2022-09-09T21:38:22.498Z,101489.69
2022-09-09T21:40:50.294Z,101494.22
2022-09-09T21:43:20.494Z,101490.53
2022-09-09T21:45:51.041Z,101488.81
2022-09-09T21:48:19.312Z,101497.94
2022-09-09T21:50:49.012Z,101488.19
2022-09-09T21:53:19.205Z,101501.94
2022-09-09T21:55:50.321Z,101497.31
2022-09-09T21:58:20.926Z,101495.69
2022-09-09T22:00:48.459Z,101508.13
2022-09-09T22:03:17.773Z,101506.28
2022-09-09T22:05:48.789Z,101505.78
2022-09-09T22:08:20.188Z,101506.88
2022-09-09T22:11:12.444Z,101501.81
2022-09-09T22:13:43.115Z,101504.63
2022-09-09T22:16:13.523Z,101497.59
2022-09-09T22:18:42.317Z,101493.19
2022-09-09T22:21:16.031Z,101494.41
2022-09-09T22:23:47.703Z,101498.94
2022-09-09T22:26:18.344Z,101495.59
2022-09-09T22:28:47.842Z,101491.25
2022-09-09T22:31:15.571Z,101491.47
2022-09-09T22:33:43.015Z,101496.03
2022-09-09T22:36:10.702Z,101496.28
2022-09-09T22:38:39.452Z,101491.09
2022-09-09T22:41:07.768Z,101500.28
2022-09-09T22:43:40.105Z,101496.72
2022-09-09T22:46:07.887Z,101505.06
2022-09-09T22:48:36.699Z,101501.50
2022-09-09T22:51:06.818Z,101501.63
2022-09-09T22:53:37.385Z,101491.78
2022-09-09T22:56:07.771Z,101504.34
2022-09-09T22:58:36.850Z,101500.00
2022-09-09T23:01:12.305Z,101511.16
2022-09-09T23:03:42.311Z,101515.00
2022-09-09T23:06:11.741Z,101506.22
2022-09-09T23:08:43.907Z,101509.91
2022-09-09T23:11:12.450Z,101507.31
2022-09-09T23:13:43.187Z,101511.13
2022-09-09T23:16:12.882Z,101500.41
2022-09-09T23:18:41.222Z,101504.94
2022-09-09T23:21:11.486Z,101503.56
2022-09-09T23:23:39.422Z,101510.41
2022-09-09T23:26:11.241Z,101508.38
2022-09-09T23:28:44.858Z,101504.59
2022-09-09T23:31:14.006Z,101503.69
2022-09-09T23:33:43.457Z,101498.81
2022-09-09T23:36:16.030Z,101506.41
2022-09-09T23:38:44.590Z,101499.38
2022-09-09T23:41:14.960Z,101501.34
2022-09-09T23:43:52.033Z,101509.44
2022-09-09T23:46:22.704Z,101509.44
2022-09-09T23:48:51.973Z,101506.09
2022-09-09T23:51:23.758Z,101506.44
2022-09-09T23:53:53.724Z,101522.41
2022-09-09T23:56:23.269Z,101523.47
2022-09-09T23:58:51.535Z,101515.44
